sensor_id;sensor_type;location;lat;lon;timestamp;P1;durP1;ratioP1;P2;durP2;ratioP2
63444;SDS011;49573;47.682;9.170;2022-09-09T00:00:05;2.33;;;1.80;;
63444;SDS011;49573;47.682;9.170;2022-09-09T00:02:59;5.90;;;1.85;;
63444;SDS011;49573;47.682;9.170;2022-09-09T00:05:55;2.97;;;1.90;;
63444;SDS011;49573;47.682;9.170;2022-09-09T00:08:50;5.70;;;1.98;;
63444;SDS011;49573;47.682;9.170;2022-09-09T00:11:47;6.93;;;2.03;;
63444;SDS011;49573;47.682;9.170;2022-09-09T00:14:41;5.93;;;1.90;;
63444;SDS011;49573;47.682;9.170;2022-09-09T00:17:35;6.10;;;1.80;;
63444;SDS011;49573;47.682;9.170;2022-09-09T00:20:28;5.93;;;1.88;;
63444;SDS011;49573;47.682;9.170;2022-09-09T00:23:19;5.68;;;2.20;;
63444;SDS011;49573;47.682;9.170;2022-09-09T00:26:11;4.47;;;1.85;;
63444;SDS011;49573;47.682;9.170;2022-09-09T00:29:13;5.38;;;2.35;;
63444;SDS011;49573;47.682;9.170;2022-09-09T00:32:09;4.35;;;1.90;;
63444;SDS011;49573;47.682;9.170;2022-09-09T00:35:01;2.53;;;1.70;;
63444;SDS011;49573;47.682;9.170;2022-09-09T00:37:51;6.07;;;1.63;;
63444;SDS011;49573;47.682;9.170;2022-09-09T00:40:41;6.70;;;1.80;;
63444;SDS011;49573;47.682;9.170;2022-09-09T00:43:35;3.20;;;1.67;;
63444;SDS011;49573;47.682;9.170;2022-09-09T00:46:44;3.15;;;1.55;;
63444;SDS011;49573;47.682;9.170;2022-09-09T00:49:43;1.55;;;1.45;;
63444;SDS011;49573;47.682;9.170;2022-09-09T00:52:43;5.18;;;2.08;;
63444;SDS011;49573;47.682;9.170;2022-09-09T00:55:39;3.45;;;1.90;;
63444;SDS011;49573;47.682;9.170;2022-09-09T00:58:30;4.57;;;1.90;;
63444;SDS011;49573;47.682;9.170;2022-09-09T01:04:04;4.43;;;1.70;;
63444;SDS011;49573;47.682;9.170;2022-09-09T01:07:02;4.18;;;2.10;;
63444;SDS011;49573;47.682;9.170;2022-09-09T01:09:55;4.22;;;1.90;;
63444;SDS011;49573;47.682;9.170;2022-09-09T01:12:42;4.40;;;1.83;;
63444;SDS011;49573;47.682;9.170;2022-09-09T01:15:32;3.35;;;2.08;;
63444;SDS011;49573;47.682;9.170;2022-09-09T01:18:20;3.83;;;2.00;;
63444;SDS011;49573;47.682;9.170;2022-09-09T01:21:15;4.32;;;2.13;;
63444;SDS011;49573;47.682;9.170;2022-09-09T01:24:16;4.18;;;1.70;;
63444;SDS011;49573;47.682;9.170;2022-09-09T01:27:08;6.15;;;2.10;;
63444;SDS011;49573;47.682;9.170;2022-09-09T01:29:55;4.60;;;2.00;;
63444;SDS011;49573;47.682;9.170;2022-09-09T01:32:43;3.95;;;1.77;;
63444;SDS011;49573;47.682;9.170;2022-09-09T01:35:33;5.07;;;1.90;;
63444;SDS011;49573;47.682;9.170;2022-09-09T01:38:25;5.95;;;1.90;;
63444;SDS011;49573;47.682;9.170;2022-09-09T01:41:11;4.78;;;1.80;;
63444;SDS011;49573;47.682;9.170;2022-09-09T01:43:58;4.00;;;1.65;;
63444;SDS011;49573;47.682;9.170;2022-09-09T01:46:45;3.85;;;1.98;;
63444;SDS011;49573;47.682;9.170;2022-09-09T01:49:31;5.03;;;2.38;;
63444;SDS011;49573;47.682;9.170;2022-09-09T01:52:18;2.70;;;1.80;;
63444;SDS011;49573;47.682;9.170;2022-09-09T01:55:04;6.30;;;2.20;;
63444;SDS011;49573;47.682;9.170;2022-09-09T01:57:56;4.43;;;2.10;;
63444;SDS011;49573;47.682;9.170;2022-09-09T02:01:00;6.50;;;2.22;;
63444;SDS011;49573;47.682;9.170;2022-09-09T02:03:57;3.97;;;1.70;;
63444;SDS011;49573;47.682;9.170;2022-09-09T02:06:45;5.78;;;2.17;;
63444;SDS011;49573;47.682;9.170;2022-09-09T02:09:33;3.72;;;1.85;;
63444;SDS011;49573;47.682;9.170;2022-09-09T02:12:21;4.95;;;2.10;;
63444;SDS011;49573;47.682;9.170;2022-09-09T02:15:11;4.10;;;2.10;;
63444;SDS011;49573;47.682;9.170;2022-09-09T02:18:06;5.60;;;2.20;;
63444;SDS011;49573;47.682;9.170;2022-09-09T02:20:55;3.67;;;2.20;;
63444;SDS011;49573;47.682;9.170;2022-09-09T02:23:43;7.40;;;2.40;;
63444;SDS011;49573;47.682;9.170;2022-09-09T02:26:34;5.82;;;2.53;;
63444;SDS011;49573;47.682;9.170;2022-09-09T02:29:23;6.22;;;2.40;;
63444;SDS011;49573;47.682;9.170;2022-09-09T02:32:14;4.00;;;2.40;;
63444;SDS011;49573;47.682;9.170;2022-09-09T02:35:05;4.93;;;2.22;;
63444;SDS011;49573;47.682;9.170;2022-09-09T02:37:56;7.45;;;2.53;;
63444;SDS011;49573;47.682;9.170;2022-09-09T02:40:45;3.78;;;2.30;;
63444;SDS011;49573;47.682;9.170;2022-09-09T02:43:31;3.93;;;2.30;;
63444;SDS011;49573;47.682;9.170;2022-09-09T02:46:29;10.10;;;2.92;;
63444;SDS011;49573;47.682;9.170;2022-09-09T02:49:28;4.00;;;2.30;;
63444;SDS011;49573;47.682;9.170;2022-09-09T02:52:27;8.00;;;2.42;;
63444;SDS011;49573;47.682;9.170;2022-09-09T02:55:20;7.93;;;2.42;;
63444;SDS011;49573;47.682;9.170;2022-09-09T02:58:10;5.70;;;2.80;;
63444;SDS011;49573;47.682;9.170;2022-09-09T03:01:02;5.35;;;2.80;;
63444;SDS011;49573;47.682;9.170;2022-09-09T03:03:48;4.63;;;2.60;;
63444;SDS011;49573;47.682;9.170;2022-09-09T03:06:34;6.13;;;2.90;;
63444;SDS011;49573;47.682;9.170;2022-09-09T03:09:22;6.55;;;2.85;;
63444;SDS011;49573;47.682;9.170;2022-09-09T03:12:08;7.32;;;2.88;;
63444;SDS011;49573;47.682;9.170;2022-09-09T03:14:56;6.88;;;2.53;;
63444;SDS011;49573;47.682;9.170;2022-09-09T03:17:42;7.53;;;2.50;;
63444;SDS011;49573;47.682;9.170;2022-09-09T03:20:29;7.20;;;2.73;;
63444;SDS011;49573;47.682;9.170;2022-09-09T03:23:15;7.03;;;2.85;;
63444;SDS011;49573;47.682;9.170;2022-09-09T03:26:03;4.27;;;2.40;;
63444;SDS011;49573;47.682;9.170;2022-09-09T03:28:49;6.85;;;2.40;;
63444;SDS011;49573;47.682;9.170;2022-09-09T03:31:37;8.07;;;2.65;;
63444;SDS011;49573;47.682;9.170;2022-09-09T03:34:23;4.20;;;2.70;;
63444;SDS011;49573;47.682;9.170;2022-09-09T03:37:09;6.13;;;3.03;;
63444;SDS011;49573;47.682;9.170;2022-09-09T03:39:56;5.82;;;2.53;;
63444;SDS011;49573;47.682;9.170;2022-09-09T03:42:43;4.90;;;2.63;;
63444;SDS011;49573;47.682;9.170;2022-09-09T03:45:29;6.10;;;2.65;;
63444;SDS011;49573;47.682;9.170;2022-09-09T03:48:16;6.85;;;2.88;;
63444;SDS011;49573;47.682;9.170;2022-09-09T03:53:48;4.70;;;2.72;;
63444;SDS011;49573;47.682;9.170;2022-09-09T03:56:34;4.85;;;2.80;;
63444;SDS011;49573;47.682;9.170;2022-09-09T03:59:22;5.75;;;3.08;;
63444;SDS011;49573;47.682;9.170;2022-09-09T04:02:08;7.22;;;2.80;;
63444;SDS011;49573;47.682;9.170;2022-09-09T04:04:55;5.47;;;2.58;;
63444;SDS011;49573;47.682;9.170;2022-09-09T04:07:41;7.07;;;2.67;;
63444;SDS011;49573;47.682;9.170;2022-09-09T04:10:27;6.72;;;2.55;;
63444;SDS011;49573;47.682;9.170;2022-09-09T04:13:14;6.72;;;2.63;;
63444;SDS011;49573;47.682;9.170;2022-09-09T04:16:04;5.38;;;2.33;;
63444;SDS011;49573;47.682;9.170;2022-09-09T04:18:51;5.60;;;2.72;;
63444;SDS011;49573;47.682;9.170;2022-09-09T04:21:38;12.05;;;2.45;;
63444;SDS011;49573;47.682;9.170;2022-09-09T04:24:25;6.30;;;2.45;;
63444;SDS011;49573;47.682;9.170;2022-09-09T04:27:14;7.82;;;2.72;;
63444;SDS011;49573;47.682;9.170;2022-09-09T04:30:00;7.37;;;2.70;;
63444;SDS011;49573;47.682;9.170;2022-09-09T04:32:47;5.70;;;2.90;;
63444;SDS011;49573;47.682;9.170;2022-09-09T04:35:33;6.95;;;2.40;;
63444;SDS011;49573;47.682;9.170;2022-09-09T04:38:20;5.30;;;2.30;;
63444;SDS011;49573;47.682;9.170;2022-09-09T04:41:08;4.00;;;2.28;;
63444;SDS011;49573;47.682;9.170;2022-09-09T04:43:56;7.38;;;2.17;;
63444;SDS011;49573;47.682;9.170;2022-09-09T04:46:42;6.72;;;2.60;;
63444;SDS011;49573;47.682;9.170;2022-09-09T04:49:30;7.78;;;2.45;;
63444;SDS011;49573;47.682;9.170;2022-09-09T04:52:16;3.90;;;2.53;;
63444;SDS011;49573;47.682;9.170;2022-09-09T04:55:03;3.75;;;2.30;;
63444;SDS011;49573;47.682;9.170;2022-09-09T05:00:37;4.20;;;1.95;;
63444;SDS011;49573;47.682;9.170;2022-09-09T05:03:23;4.07;;;1.80;;
63444;SDS011;49573;47.682;9.170;2022-09-09T05:06:11;4.00;;;1.83;;
63444;SDS011;49573;47.682;9.170;2022-09-09T05:08:58;3.55;;;1.48;;
63444;SDS011;49573;47.682;9.170;2022-09-09T05:11:45;3.88;;;1.70;;
63444;SDS011;49573;47.682;9.170;2022-09-09T05:14:31;2.95;;;1.48;;
63444;SDS011;49573;47.682;9.170;2022-09-09T05:17:17;2.47;;;1.55;;
63444;SDS011;49573;47.682;9.170;2022-09-09T05:20:03;2.83;;;2.03;;
63444;SDS011;49573;47.682;9.170;2022-09-09T05:25:39;2.13;;;1.33;;
63444;SDS011;49573;47.682;9.170;2022-09-09T05:28:27;3.00;;;1.95;;
63444;SDS011;49573;47.682;9.170;2022-09-09T05:31:13;5.47;;;1.90;;
63444;SDS011;49573;47.682;9.170;2022-09-09T05:34:01;3.20;;;1.85;;
63444;SDS011;49573;47.682;9.170;2022-09-09T05:36:47;4.53;;;2.13;;
63444;SDS011;49573;47.682;9.170;2022-09-09T05:39:34;3.50;;;1.80;;
63444;SDS011;49573;47.682;9.170;2022-09-09T05:42:22;3.30;;;1.60;;
63444;SDS011;49573;47.682;9.170;2022-09-09T05:45:08;3.53;;;1.80;;
63444;SDS011;49573;47.682;9.170;2022-09-09T05:47:54;4.70;;;1.98;;
63444;SDS011;49573;47.682;9.170;2022-09-09T05:50:40;3.20;;;1.60;;
63444;SDS011;49573;47.682;9.170;2022-09-09T05:53:26;4.73;;;2.00;;
63444;SDS011;49573;47.682;9.170;2022-09-09T05:56:15;3.30;;;2.00;;
63444;SDS011;49573;47.682;9.170;2022-09-09T05:59:05;4.65;;;1.58;;
63444;SDS011;49573;47.682;9.170;2022-09-09T06:01:52;3.58;;;2.10;;
63444;SDS011;49573;47.682;9.170;2022-09-09T06:04:38;4.00;;;1.90;;
63444;SDS011;49573;47.682;9.170;2022-09-09T06:07:24;2.67;;;1.50;;
63444;SDS011;49573;47.682;9.170;2022-09-09T06:10:10;5.95;;;1.88;;
63444;SDS011;49573;47.682;9.170;2022-09-09T06:13:00;3.17;;;1.80;;
63444;SDS011;49573;47.682;9.170;2022-09-09T06:15:49;2.97;;;1.90;;
63444;SDS011;49573;47.682;9.170;2022-09-09T06:18:36;2.92;;;1.85;;
63444;SDS011;49573;47.682;9.170;2022-09-09T06:21:23;4.13;;;1.83;;
63444;SDS011;49573;47.682;9.170;2022-09-09T06:24:10;3.15;;;1.90;;
63444;SDS011;49573;47.682;9.170;2022-09-09T06:26:59;2.40;;;1.63;;
63444;SDS011;49573;47.682;9.170;2022-09-09T06:29:47;3.38;;;1.80;;
63444;SDS011;49573;47.682;9.170;2022-09-09T06:32:33;2.28;;;1.73;;
63444;SDS011;49573;47.682;9.170;2022-09-09T06:35:20;6.00;;;1.88;;
63444;SDS011;49573;47.682;9.170;2022-09-09T06:38:06;4.03;;;2.27;;
63444;SDS011;49573;47.682;9.170;2022-09-09T06:40:53;3.40;;;1.65;;
63444;SDS011;49573;47.682;9.170;2022-09-09T06:43:41;6.72;;;2.13;;
63444;SDS011;49573;47.682;9.170;2022-09-09T06:46:29;4.85;;;1.83;;
63444;SDS011;49573;47.682;9.170;2022-09-09T06:49:17;3.47;;;1.80;;
63444;SDS011;49573;47.682;9.170;2022-09-09T06:52:03;3.17;;;1.70;;
63444;SDS011;49573;47.682;9.170;2022-09-09T06:54:50;3.88;;;1.92;;
63444;SDS011;49573;47.682;9.170;2022-09-09T06:57:36;3.55;;;2.83;;
63444;SDS011;49573;47.682;9.170;2022-09-09T07:00:22;2.92;;;1.92;;
63444;SDS011;49573;47.682;9.170;2022-09-09T07:03:10;2.92;;;1.85;;
63444;SDS011;49573;47.682;9.170;2022-09-09T07:05:56;3.15;;;1.75;;
63444;SDS011;49573;47.682;9.170;2022-09-09T07:08:43;4.30;;;1.80;;
63444;SDS011;49573;47.682;9.170;2022-09-09T07:11:30;5.55;;;2.05;;
63444;SDS011;49573;47.682;9.170;2022-09-09T07:14:18;3.83;;;1.83;;
63444;SDS011;49573;47.682;9.170;2022-09-09T07:17:04;3.58;;;2.08;;
63444;SDS011;49573;47.682;9.170;2022-09-09T07:19:51;4.40;;;1.90;;
63444;SDS011;49573;47.682;9.170;2022-09-09T07:22:38;4.15;;;1.80;;
63444;SDS011;49573;47.682;9.170;2022-09-09T07:25:24;3.00;;;1.53;;
63444;SDS011;49573;47.682;9.170;2022-09-09T07:28:10;4.60;;;2.20;;
63444;SDS011;49573;47.682;9.170;2022-09-09T07:30:56;5.93;;;2.05;;
63444;SDS011;49573;47.682;9.170;2022-09-09T07:33:46;6.93;;;2.08;;
63444;SDS011;49573;47.682;9.170;2022-09-09T07:36:35;2.40;;;1.80;;
63444;SDS011;49573;47.682;9.170;2022-09-09T07:39:23;3.45;;;1.80;;
63444;SDS011;49573;47.682;9.170;2022-09-09T07:42:09;2.57;;;1.60;;
63444;SDS011;49573;47.682;9.170;2022-09-09T07:44:56;3.05;;;1.80;;
63444;SDS011;49573;47.682;9.170;2022-09-09T07:47:42;3.30;;;1.60;;
63444;SDS011;49573;47.682;9.170;2022-09-09T07:50:28;2.70;;;1.60;;
63444;SDS011;49573;47.682;9.170;2022-09-09T07:53:16;3.23;;;1.53;;
63444;SDS011;49573;47.682;9.170;2022-09-09T07:56:02;3.33;;;1.70;;
63444;SDS011;49573;47.682;9.170;2022-09-09T07:58:50;6.28;;;1.90;;
63444;SDS011;49573;47.682;9.170;2022-09-09T08:01:39;3.35;;;1.70;;
63444;SDS011;49573;47.682;9.170;2022-09-09T08:04:27;2.53;;;1.70;;
63444;SDS011;49573;47.682;9.170;2022-09-09T08:07:13;3.72;;;1.60;;
63444;SDS011;49573;47.682;9.170;2022-09-09T08:10:02;2.92;;;1.45;;
63444;SDS011;49573;47.682;9.170;2022-09-09T08:12:49;3.47;;;1.40;;
63444;SDS011;49573;47.682;9.170;2022-09-09T08:15:35;5.03;;;1.50;;
63444;SDS011;49573;47.682;9.170;2022-09-09T08:18:21;3.17;;;1.70;;
63444;SDS011;49573;47.682;9.170;2022-09-09T08:21:08;2.53;;;1.40;;
63444;SDS011;49573;47.682;9.170;2022-09-09T08:23:57;1.73;;;1.08;;
63444;SDS011;49573;47.682;9.170;2022-09-09T08:26:46;1.85;;;1.30;;
63444;SDS011;49573;47.682;9.170;2022-09-09T08:29:36;2.13;;;1.15;;
63444;SDS011;49573;47.682;9.170;2022-09-09T08:32:23;3.45;;;1.35;;
63444;SDS011;49573;47.682;9.170;2022-09-09T08:35:09;1.65;;;1.13;;
63444;SDS011;49573;47.682;9.170;2022-09-09T08:37:55;2.63;;;1.30;;
63444;SDS011;49573;47.682;9.170;2022-09-09T08:40:42;3.73;;;1.60;;
63444;SDS011;49573;47.682;9.170;2022-09-09T08:43:32;2.00;;;1.30;;
63444;SDS011;49573;47.682;9.170;2022-09-09T08:46:20;2.60;;;1.42;;
63444;SDS011;49573;47.682;9.170;2022-09-09T08:49:16;5.10;;;1.90;;
63444;SDS011;49573;47.682;9.170;2022-09-09T08:52:22;2.25;;;1.27;;
63444;SDS011;49573;47.682;9.170;2022-09-09T08:55:15;3.72;;;1.67;;
63444;SDS011;49573;47.682;9.170;2022-09-09T08:58:11;5.00;;;1.58;;
63444;SDS011;49573;47.682;9.170;2022-09-09T09:01:03;2.97;;;1.30;;
63444;SDS011;49573;47.682;9.170;2022-09-09T09:04:03;2.60;;;1.63;;
63444;SDS011;49573;47.682;9.170;2022-09-09T09:06:59;4.55;;;1.55;;
63444;SDS011;49573;47.682;9.170;2022-09-09T09:09:54;2.88;;;1.27;;
63444;SDS011;49573;47.682;9.170;2022-09-09T09:12:46;2.00;;;1.40;;
63444;SDS011;49573;47.682;9.170;2022-09-09T09:15:35;4.15;;;1.52;;
63444;SDS011;49573;47.682;9.170;2022-09-09T09:18:24;3.13;;;1.45;;
63444;SDS011;49573;47.682;9.170;2022-09-09T09:21:12;1.92;;;1.50;;
63444;SDS011;49573;47.682;9.170;2022-09-09T09:24:04;2.75;;;1.20;;
63444;SDS011;49573;47.682;9.170;2022-09-09T09:26:58;5.20;;;1.75;;
63444;SDS011;49573;47.682;9.170;2022-09-09T09:29:49;5.70;;;1.95;;
63444;SDS011;49573;47.682;9.170;2022-09-09T09:32:37;3.08;;;1.67;;
63444;SDS011;49573;47.682;9.170;2022-09-09T09:35:28;2.83;;;1.30;;
63444;SDS011;49573;47.682;9.170;2022-09-09T09:38:16;4.07;;;1.50;;
63444;SDS011;49573;47.682;9.170;2022-09-09T09:41:03;3.03;;;1.45;;
63444;SDS011;49573;47.682;9.170;2022-09-09T09:43:53;3.22;;;1.70;;
63444;SDS011;49573;47.682;9.170;2022-09-09T09:46:39;2.53;;;1.33;;
63444;SDS011;49573;47.682;9.170;2022-09-09T09:49:25;3.40;;;1.23;;
63444;SDS011;49573;47.682;9.170;2022-09-09T09:52:13;4.00;;;1.27;;
63444;SDS011;49573;47.682;9.170;2022-09-09T09:55:05;3.60;;;1.60;;
63444;SDS011;49573;47.682;9.170;2022-09-09T09:58:03;3.25;;;1.50;;
63444;SDS011;49573;47.682;9.170;2022-09-09T10:00:51;3.33;;;1.60;;
63444;SDS011;49573;47.682;9.170;2022-09-09T10:03:38;3.00;;;1.48;;
63444;SDS011;49573;47.682;9.170;2022-09-09T10:06:29;3.65;;;1.10;;
63444;SDS011;49573;47.682;9.170;2022-09-09T10:09:22;3.60;;;1.45;;
63444;SDS011;49573;47.682;9.170;2022-09-09T10:12:14;4.25;;;1.60;;
63444;SDS011;49573;47.682;9.170;2022-09-09T10:15:07;2.85;;;1.33;;
63444;SDS011;49573;47.682;9.170;2022-09-09T10:18:16;4.50;;;1.50;;
63444;SDS011;49573;47.682;9.170;2022-09-09T10:21:13;6.95;;;1.60;;
63444;SDS011;49573;47.682;9.170;2022-09-09T10:24:17;2.95;;;1.40;;
63444;SDS011;49573;47.682;9.170;2022-09-09T10:27:27;3.63;;;1.83;;
63444;SDS011;49573;47.682;9.170;2022-09-09T10:30:19;3.90;;;1.50;;
63444;SDS011;49573;47.682;9.170;2022-09-09T10:33:08;3.05;;;1.38;;
63444;SDS011;49573;47.682;9.170;2022-09-09T10:35:57;5.15;;;1.70;;
63444;SDS011;49573;47.682;9.170;2022-09-09T10:38:57;4.63;;;1.60;;
63444;SDS011;49573;47.682;9.170;2022-09-09T10:41:48;6.88;;;1.77;;
63444;SDS011;49573;47.682;9.170;2022-09-09T10:44:48;4.45;;;1.70;;
63444;SDS011;49573;47.682;9.170;2022-09-09T10:47:54;3.42;;;1.48;;
63444;SDS011;49573;47.682;9.170;2022-09-09T10:50:53;3.47;;;1.33;;
63444;SDS011;49573;47.682;9.170;2022-09-09T10:53:49;4.30;;;1.70;;
63444;SDS011;49573;47.682;9.170;2022-09-09T10:56:47;4.93;;;1.58;;
63444;SDS011;49573;47.682;9.170;2022-09-09T10:59:40;3.28;;;1.52;;
63444;SDS011;49573;47.682;9.170;2022-09-09T11:02:30;2.22;;;1.40;;
63444;SDS011;49573;47.682;9.170;2022-09-09T11:05:18;3.33;;;1.20;;
63444;SDS011;49573;47.682;9.170;2022-09-09T11:08:06;4.82;;;1.80;;
63444;SDS011;49573;47.682;9.170;2022-09-09T11:10:58;4.18;;;1.38;;
63444;SDS011;49573;47.682;9.170;2022-09-09T11:13:52;3.00;;;1.40;;
63444;SDS011;49573;47.682;9.170;2022-09-09T11:16:42;2.47;;;1.42;;
63444;SDS011;49573;47.682;9.170;2022-09-09T11:19:34;5.45;;;1.48;;
63444;SDS011;49573;47.682;9.170;2022-09-09T11:22:25;3.33;;;1.45;;
63444;SDS011;49573;47.682;9.170;2022-09-09T11:25:16;4.32;;;2.08;;
63444;SDS011;49573;47.682;9.170;2022-09-09T11:28:17;3.13;;;1.25;;
63444;SDS011;49573;47.682;9.170;2022-09-09T11:31:26;2.08;;;1.20;;
63444;SDS011;49573;47.682;9.170;2022-09-09T11:34:32;2.58;;;1.40;;
63444;SDS011;49573;47.682;9.170;2022-09-09T11:37:40;5.10;;;1.73;;
63444;SDS011;49573;47.682;9.170;2022-09-09T11:40:39;3.22;;;1.42;;
63444;SDS011;49573;47.682;9.170;2022-09-09T11:43:27;2.70;;;1.10;;
63444;SDS011;49573;47.682;9.170;2022-09-09T11:46:15;1.77;;;1.10;;
63444;SDS011;49573;47.682;9.170;2022-09-09T11:49:21;2.22;;;1.30;;
63444;SDS011;49573;47.682;9.170;2022-09-09T11:52:12;2.37;;;1.33;;
63444;SDS011;49573;47.682;9.170;2022-09-09T11:55:09;1.98;;;1.20;;
63444;SDS011;49573;47.682;9.170;2022-09-09T11:57:57;3.50;;;1.30;;
63444;SDS011;49573;47.682;9.170;2022-09-09T12:00:45;2.38;;;1.40;;
63444;SDS011;49573;47.682;9.170;2022-09-09T12:03:36;2.63;;;1.20;;
63444;SDS011;49573;47.682;9.170;2022-09-09T12:06:31;5.30;;;1.58;;
63444;SDS011;49573;47.682;9.170;2022-09-09T12:09:23;4.80;;;1.23;;
63444;SDS011;49573;47.682;9.170;2022-09-09T12:12:22;2.88;;;1.30;;
63444;SDS011;49573;47.682;9.170;2022-09-09T12:15:17;2.33;;;1.30;;
63444;SDS011;49573;47.682;9.170;2022-09-09T12:18:14;3.88;;;1.40;;
63444;SDS011;49573;47.682;9.170;2022-09-09T12:21:07;2.70;;;1.05;;
63444;SDS011;49573;47.682;9.170;2022-09-09T12:24:03;2.65;;;1.25;;
63444;SDS011;49573;47.682;9.170;2022-09-09T12:26:56;2.13;;;1.17;;
63444;SDS011;49573;47.682;9.170;2022-09-09T12:29:49;2.67;;;1.17;;
63444;SDS011;49573;47.682;9.170;2022-09-09T12:32:44;2.40;;;1.27;;
63444;SDS011;49573;47.682;9.170;2022-09-09T12:35:30;1.83;;;1.23;;
63444;SDS011;49573;47.682;9.170;2022-09-09T12:41:17;3.08;;;1.48;;
63444;SDS011;49573;47.682;9.170;2022-09-09T12:44:05;3.65;;;1.60;;
63444;SDS011;49573;47.682;9.170;2022-09-09T12:46:54;2.80;;;1.25;;
63444;SDS011;49573;47.682;9.170;2022-09-09T12:49:42;3.75;;;1.67;;
63444;SDS011;49573;47.682;9.170;2022-09-09T12:52:30;2.90;;;1.40;;
63444;SDS011;49573;47.682;9.170;2022-09-09T12:55:20;3.28;;;1.30;;
63444;SDS011;49573;47.682;9.170;2022-09-09T12:58:12;3.85;;;1.35;;
63444;SDS011;49573;47.682;9.170;2022-09-09T13:01:02;3.33;;;1.40;;
63444;SDS011;49573;47.682;9.170;2022-09-09T13:03:50;3.10;;;1.40;;
63444;SDS011;49573;47.682;9.170;2022-09-09T13:06:36;3.90;;;1.67;;
63444;SDS011;49573;47.682;9.170;2022-09-09T13:09:22;2.30;;;1.33;;
63444;SDS011;49573;47.682;9.170;2022-09-09T13:12:10;2.15;;;1.40;;
63444;SDS011;49573;47.682;9.170;2022-09-09T13:15:01;3.08;;;1.48;;
63444;SDS011;49573;47.682;9.170;2022-09-09T13:17:55;3.10;;;1.60;;
63444;SDS011;49573;47.682;9.170;2022-09-09T13:20:45;4.05;;;1.38;;
63444;SDS011;49573;47.682;9.170;2022-09-09T13:23:32;3.22;;;1.15;;
63444;SDS011;49573;47.682;9.170;2022-09-09T13:26:21;5.82;;;1.55;;
63444;SDS011;49573;47.682;9.170;2022-09-09T13:29:14;2.15;;;1.23;;
63444;SDS011;49573;47.682;9.170;2022-09-09T13:32:12;3.10;;;1.48;;
63444;SDS011;49573;47.682;9.170;2022-09-09T13:35:02;2.75;;;1.20;;
63444;SDS011;49573;47.682;9.170;2022-09-09T13:40:34;3.60;;;1.38;;
63444;SDS011;49573;47.682;9.170;2022-09-09T13:43:22;2.63;;;1.50;;
63444;SDS011;49573;47.682;9.170;2022-09-09T13:46:22;2.55;;;1.40;;
63444;SDS011;49573;47.682;9.170;2022-09-09T13:49:21;2.00;;;1.25;;
63444;SDS011;49573;47.682;9.170;2022-09-09T13:52:09;2.67;;;1.55;;
63444;SDS011;49573;47.682;9.170;2022-09-09T13:54:57;2.15;;;1.40;;
63444;SDS011;49573;47.682;9.170;2022-09-09T13:57:51;3.20;;;1.52;;
63444;SDS011;49573;47.682;9.170;2022-09-09T14:00:38;4.38;;;1.40;;
63444;SDS011;49573;47.682;9.170;2022-09-09T14:03:25;3.60;;;1.33;;
63444;SDS011;49573;47.682;9.170;2022-09-09T14:06:12;2.42;;;1.38;;
63444;SDS011;49573;47.682;9.170;2022-09-09T14:08:59;3.90;;;1.38;;
63444;SDS011;49573;47.682;9.170;2022-09-09T14:11:45;2.58;;;1.42;;
63444;SDS011;49573;47.682;9.170;2022-09-09T14:17:17;4.60;;;1.83;;
63444;SDS011;49573;47.682;9.170;2022-09-09T14:20:03;3.40;;;1.63;;
63444;SDS011;49573;47.682;9.170;2022-09-09T14:22:55;3.45;;;1.55;;
63444;SDS011;49573;47.682;9.170;2022-09-09T14:25:43;1.70;;;1.15;;
63444;SDS011;49573;47.682;9.170;2022-09-09T14:28:29;2.42;;;1.30;;
63444;SDS011;49573;47.682;9.170;2022-09-09T14:31:15;3.58;;;1.50;;
63444;SDS011;49573;47.682;9.170;2022-09-09T14:34:02;2.58;;;1.40;;
63444;SDS011;49573;47.682;9.170;2022-09-09T14:36:48;3.38;;;1.52;;
63444;SDS011;49573;47.682;9.170;2022-09-09T14:39:37;4.90;;;1.88;;
63444;SDS011;49573;47.682;9.170;2022-09-09T14:42:23;3.70;;;1.70;;
63444;SDS011;49573;47.682;9.170;2022-09-09T14:45:09;6.10;;;3.30;;
63444;SDS011;49573;47.682;9.170;2022-09-09T14:47:56;2.90;;;1.90;;
63444;SDS011;49573;47.682;9.170;2022-09-09T14:50:42;4.10;;;1.67;;
63444;SDS011;49573;47.682;9.170;2022-09-09T14:53:29;1.67;;;1.23;;
63444;SDS011;49573;47.682;9.170;2022-09-09T14:56:18;3.70;;;1.83;;
63444;SDS011;49573;47.682;9.170;2022-09-09T14:59:06;4.57;;;2.70;;
63444;SDS011;49573;47.682;9.170;2022-09-09T15:01:53;3.47;;;1.67;;
63444;SDS011;49573;47.682;9.170;2022-09-09T15:04:39;7.30;;;1.98;;
63444;SDS011;49573;47.682;9.170;2022-09-09T15:07:25;4.70;;;1.40;;
63444;SDS011;49573;47.682;9.170;2022-09-09T15:10:12;3.83;;;1.52;;
63444;SDS011;49573;47.682;9.170;2022-09-09T15:13:00;3.30;;;1.52;;
63444;SDS011;49573;47.682;9.170;2022-09-09T15:15:46;2.75;;;1.45;;
63444;SDS011;49573;47.682;9.170;2022-09-09T15:18:32;4.13;;;1.77;;
63444;SDS011;49573;47.682;9.170;2022-09-09T15:21:19;2.60;;;1.33;;
63444;SDS011;49573;47.682;9.170;2022-09-09T15:24:06;3.10;;;1.50;;
63444;SDS011;49573;47.682;9.170;2022-09-09T15:26:53;4.40;;;1.80;;
63444;SDS011;49573;47.682;9.170;2022-09-09T15:29:41;3.92;;;1.67;;
63444;SDS011;49573;47.682;9.170;2022-09-09T15:32:27;3.50;;;1.80;;
63444;SDS011;49573;47.682;9.170;2022-09-09T15:35:14;3.88;;;1.30;;
63444;SDS011;49573;47.682;9.170;2022-09-09T15:38:01;2.47;;;1.13;;
63444;SDS011;49573;47.682;9.170;2022-09-09T15:40:52;3.40;;;1.05;;
63444;SDS011;49573;47.682;9.170;2022-09-09T15:43:42;2.33;;;1.10;;
63444;SDS011;49573;47.682;9.170;2022-09-09T15:46:32;2.95;;;1.13;;
63444;SDS011;49573;47.682;9.170;2022-09-09T15:49:19;3.33;;;1.30;;
63444;SDS011;49573;47.682;9.170;2022-09-09T15:52:08;2.53;;;1.15;;
63444;SDS011;49573;47.682;9.170;2022-09-09T15:54:56;2.63;;;1.25;;
63444;SDS011;49573;47.682;9.170;2022-09-09T15:57:42;3.35;;;1.10;;
63444;SDS011;49573;47.682;9.170;2022-09-09T16:00:28;2.05;;;0.82;;
63444;SDS011;49573;47.682;9.170;2022-09-09T16:03:15;2.25;;;1.00;;
63444;SDS011;49573;47.682;9.170;2022-09-09T16:06:03;1.85;;;0.85;;
63444;SDS011;49573;47.682;9.170;2022-09-09T16:08:51;2.65;;;0.88;;
63444;SDS011;49573;47.682;9.170;2022-09-09T16:11:38;3.20;;;1.10;;
63444;SDS011;49573;47.682;9.170;2022-09-09T16:14:24;1.85;;;1.00;;
63444;SDS011;49573;47.682;9.170;2022-09-09T16:17:11;2.58;;;1.15;;
63444;SDS011;49573;47.682;9.170;2022-09-09T16:19:58;6.30;;;1.73;;
63444;SDS011;49573;47.682;9.170;2022-09-09T16:22:44;1.65;;;1.02;;
63444;SDS011;49573;47.682;9.170;2022-09-09T16:25:30;1.92;;;1.10;;
63444;SDS011;49573;47.682;9.170;2022-09-09T16:28:16;1.58;;;0.95;;
63444;SDS011;49573;47.682;9.170;2022-09-09T16:31:03;2.50;;;1.20;;
63444;SDS011;49573;47.682;9.170;2022-09-09T16:33:50;2.33;;;1.13;;
63444;SDS011;49573;47.682;9.170;2022-09-09T16:36:38;1.83;;;1.10;;
63444;SDS011;49573;47.682;9.170;2022-09-09T16:39:25;3.17;;;1.33;;
63444;SDS011;49573;47.682;9.170;2022-09-09T16:42:11;2.45;;;1.02;;
63444;SDS011;49573;47.682;9.170;2022-09-09T16:44:58;1.75;;;1.15;;
63444;SDS011;49573;47.682;9.170;2022-09-09T16:47:44;2.53;;;1.00;;
63444;SDS011;49573;47.682;9.170;2022-09-09T16:50:30;2.80;;;1.08;;
63444;SDS011;49573;47.682;9.170;2022-09-09T16:53:18;3.10;;;1.17;;
63444;SDS011;49573;47.682;9.170;2022-09-09T16:56:04;2.05;;;1.00;;
63444;SDS011;49573;47.682;9.170;2022-09-09T16:58:52;2.83;;;1.27;;
63444;SDS011;49573;47.682;9.170;2022-09-09T17:01:41;2.47;;;1.08;;
63444;SDS011;49573;47.682;9.170;2022-09-09T17:04:28;5.88;;;1.40;;
63444;SDS011;49573;47.682;9.170;2022-09-09T17:07:16;2.58;;;1.02;;
63444;SDS011;49573;47.682;9.170;2022-09-09T17:10:05;2.25;;;1.05;;
63444;SDS011;49573;47.682;9.170;2022-09-09T17:12:53;1.27;;;0.73;;
63444;SDS011;49573;47.682;9.170;2022-09-09T17:15:39;2.92;;;0.98;;
63444;SDS011;49573;47.682;9.170;2022-09-09T17:18:27;2.20;;;1.20;;
63444;SDS011;49573;47.682;9.170;2022-09-09T17:21:15;1.45;;;0.80;;